< < Back
Terminal Aerodrome Forecast


Current Version              Previous Versions:   1  2  3  4  5  6  7  8  9  

Terminal Aerodrome Forecast

819
FTUS42 KCAE 171900 AAB
TAFCAE
TAF AMD
KCAE 171905Z 1719/1818 VRB05KT P6SM VCSH BKN025
     FM172100 VRB05KT P6SM BKN040
     FM180800 VRB03KT 3SM BR BKN006
     FM181600 06005KT P6SM SCT020=

Latest METAR

678
SAUS80 KWBC 171900
MTRCAE
METAR KCAE 171856Z 04006KT 10SM OVC024 27/19 A2990 RMK AO2 SLP123
T02670194


USA.gov is the U.S. government's official web portal to all federal, state and local government web resources and services.